Airfield :







YOU CAN JOIN US ON...

 
LOGIN :

Register | Disclaimer

   EN    FR    IT 

 









Legend :    VFR   Marginal VFR   IFR   Intensive IFR   Very Intensive IFR
Visi :
Ceiling :
>= 8 km
>= 3000ft
5 to 8 km
1000 to 3000 ft
1500m to 5 km
500 to 1000 ft
800 to 1500m
200 to 500 ft
< 800m
< 200 ft
Symbols :   Thunderstorms  Fog  Heavy snow  Heavy precipitations  Wind > 20 kt






- Airport Elevation : 90 ft
- IATA code : YHU


CYHU - Montréal Saint-Hubert

CURRENT METAR :
  • 170903Z AUTO 27004KT 1 3/4SM -SN BKN020 OVC028 M01/M02 A2920 RMK SLP889

EXPIRED METARs :
  • 170853Z AUTO 28002KT 2SM -SN BKN028 OVC034 M01/M02 A2920 RMK SLP890
  • 170840Z AUTO 31003KT 1 3/4SM -SN OVC032 M01/M02 A2920 RMK SLP890
  • 170800Z AUTO 29006KT 2 1/2SM -SN SCT009 OVC040 M01/M02 A2919 RMK SLP888
  • 170755Z AUTO 29007KT 2 1/2SM -SN SCT009 OVC040 M01/M02 A2919 RMK SLP887
  • 170738Z AUTO 29008KT 2SM -SN BKN009 OVC024 M01/M01 A2919 RMK SLP885
  • 170729Z AUTO 29008KT 1 3/4SM -SN BKN009 OVC016 M01/M01 A2919 RMK SLP885
  • 170700Z AUTO 29009KT 1 1/4SM -SN SCT008 OVC014 M01/M02 A2918 RMK SLP882
  • 170656Z AUTO 29009KT 1 1/4SM -SN SCT008 OVC014 M01/M02 A2918 RMK SLP882

TAF TAF CYHU
Valid from the 17 at 06:00 until the 18 at 06:00 UTC


170538Z 1706/1806 31008KT 11/2SM -SN BR OVC006
TEMPO 1706/1710 6SM -SN OVC015
FM171000 28012KT 21/2SM -SN BR BKN008 OVC015
TEMPO 1710/1713 P6SM -SN OVC015
FM171300 27015G25KT P6SM SCT015 BKN030
TEMPO 1713/1720 4SM -SHSN BKN015 OVC030
FM172000 26015G25KT P6SM BKN030
BECMG 1721/1723 27015KT RMK FCST BASED ON AUTO OBS. NXT FCST BY 171200Z
CZUL FIR / North America



MET'MAP, your aeronautical weather chart ! - Copyright ORBIFLY December 2007 - Disclaimer

ORBIFLY MET'MAP TEAM :

Programming & Development : Alexandra Zaïnal
Concept & original design : Baudouin d'Aumeries
Assistance for programming : Marc-Olivier Méhu
Technical & hardware support : Manuel Goepfert

Contact : metmap@orbifly.com




SOURCES & CREDITS :

   NOAA